Timeline UpdatesTrip UpdatesNews PostsPvt PostsTravel TipsAdmin PostsConv PostsFollowed PostsChat RequestsBlog PostsPNR Posts

Disclaimer
Search
 
 
Sat Aug 30, 2014 03:39:08 ISTHomeTrainsΣChainsAtlasPNRForumGalleryNewsFAQTripsMembersLoginFeedback
No Recent News for this Train
Other Trains in the News **new
Latest...
.
Wed May 15, 2013 (12:03AM)
⇐ Return Journey: Train# 59439

59440/Ahmedabad - Mumbai Central Passenger

Oct 10 2013 (2:14AM)
Change Departure Station:
Change Arrival Station:
Post a Train Travel TipPost a Train Travel Tip **new
Post a Comment/Question/Picture/VideoPost a Comment/Question/Picture/Video
Pantry/Catering
✕ NO Pantry Car
✕ NO Catering
RSA - Rake Sharing
59439,59440,59441 and 59442 all share rakes.
Rake/Coach Composition
Loco
BL WCAM-1/BRC WAG-5A
News    PNR    Forum    Time-Table    Availability    Fare Chart    Map    Arr/Dep History    Trips    Gallery    ΣChains    X/O    Timeline    
Travel Time: 12h 22m    54 halts    Distance: 373 km    Avg Speed: 30 km/hr
Type: Passenger
Zone: WR/Western
Departs @ 23:00 (Avg 7m late)
Platform# 2
SMTWTFS
Ahmedabad Junction/ADI 
Arrives @ 11:22 +1 night (Avg 58m late)
Platform# ???
SMTWTFS
Dahanu Road/DRD 

54 halts. 72 intermediate Stations between Ahmedabad Junction and Dahanu Road

Show ALL intermediate Stations  Show Old Time-Table

#CodeStation NameX/OArrivesAvgDepartsAvgHaltPFDay#KmSpeedElevZoneAddress
1ADI»Ahmedabad Junction (12)»  -23:00+7210.01951mWRAhmedabad, Gujarat
2MANManinagar (2)X  23:10+023:12+02m213.25850mWRAhmadabad, Gujarat
3VTAVatva (4)X  23:17+2223:19+222m--18.02549mWRDist. Ahmedabad 382445, Gujarat
4BJDBarejadi Nandej (3)O  23:40+3223:41+321m--116.64442mWRBareja-Barejadi Rd, Gujarat
5KANJKanij (3)O  23:47+3323:48+381m--121.01239mWRBareja-Barejadi Rd, Gujarat
6NEPNenpur (2)O  00:02-00:03-1m--223.94235mWRState Highway 3, Gujarat
7MHDMahemdavad Kheda Road (4)X  00:09+2900:10+351m--228.02237mWRMahemdavad, Gujarat
8GTEGothaj (2)X  00:24+3100:26+362m--233.28232mWRState Highway 3, Gujarat
9NDNadiad Junction (4)X  00:35+2400:39+234m--245.66037mWRNadiad, Gujarat
10KBRVKanjari Boriyavi Junction (4)XO  00:50+3700:52+382m--256.61939mWRKanjari, Gujarat
11ANNDAnand Junction (6)  01:15+1901:20+175m--264.05244mWRAnand, Gujarat
12VXDVadod (3)X  01:28+2801:29+281m--270.93544mWRAnand District, Gujarat
13ADDAdas Road (4)X  01:36+2701:37+271m--274.94042mWRNational Highway 8, Gujarat
14VDAVasad Junction (3)  01:44+2601:46+342m--279.66940mWRVasad, Gujarat
15RNORanoli (2)X  01:54+3401:55+351m--288.72139mWRVadodara District, Gujarat
16BJWBajva (3)X  02:06+3502:07+351m--292.51738mWRVadodara, Gujarat
17BRCVadodara Junction (7)X  02:33+1702:38+175m--299.86436mWRVadodara 390005, Gujarat
18ITAItola (4)  02:55+1902:56+301m--2118.07027mWRNational Highway 8 Vadodara, Gujarat
19MYGMiyagam Karjan (2)X  03:06+1:0103:08+1:002m--2129.67029mWRKarjan, Gujarat
20PLJPalej (4)XO  03:21+1:0303:23+1:112m--2144.92329mWRPalej, Gujarat
21NIUNabipur (3)O  03:58+5503:59+571m--2158.24524mWRNabipur, Gujarat
22BHBharuch Junction (5)XO  04:15+4704:20+525m42170.32919mWRBharuch, Gujarat
23AKVAnkleshwar Junction (4)X  04:39+4504:41+472m22179.66919mWRAnkleshwar, Gujarat
24PAOPanoli (3)X  04:50+1:0404:52+1:122m--2189.93929mWRPanoli, Gujarat
25HATHathuran (2)  04:58-05:00-2m--2193.85232mWRKosamba, Gujarat
26KSBKosamba Junction (3)X  05:05+1:1105:07+1:102m--2198.25230mWRKosamba, Gujarat
27KIMKim (2)XO  05:16+1:1005:18+1:122m--2205.91018mWRNH 8, Gujarat
28KDSDKudsad (2)X  05:34-05:36-2m--2208.77118mWRNH 8, Gujarat
29SYNSayan (3)X  05:42+1:0105:44+1:052m--2215.91321mWRSayan Satellite town, Gujarat
30GTXGothangam (2)O  05:58+5906:00+582m--2218.83719mWRAmroli Sayan Rd, Gujarat
31KSEKosad (2)O  06:06+5906:08+1:002m--2222.51317mWRSurat, Gujarat
32URNUtran (3)XO  06:23+4406:25+452m--2225.7815mWRSurat, Gujarat
33STSurat (4)XOO  06:55+2107:15+1920m32229.64019mWRSurat 395001, Gujarat
34UDNUdhna Junction (3)X  07:21+4107:23+422m22233.63616mWRUdhna 394210, Gujarat
35BHETBhestan (2)O  07:31+4507:32+451m22238.45713mWRSurat, Gujarat
36SCHSachin (3)O  07:38+4707:40+482m--2244.16611mWRKansad Road Sachin, Gujarat
37MRLMaroli (3)XO  07:46+5107:48+502m--2250.73015mWRMaroli, Gujarat
38NVSNavsari (3)  08:05+3908:06+411m--2259.25114mWRNavsari, Gujarat
39VDHVedchha (3)X  08:16+4808:17+481m--2267.65113mWRNavsari, Gujarat
40ACLAncheli (2)X  08:21-08:23-2m--2271.05720mWRNavsari, Gujarat
41AMLAmalsad (3)  08:27+5108:29+502m--2274.85612mWRAmalsad, Gujarat
42BIMBilimora Junction (4)O  08:35+4308:37+442m--2280.34711mWRBilimora, Gujarat
43JRSJoravasan (2)  08:42-08:44-2m--2284.37615mWRJoravasan, Gujarat
44DGIDungri (3)XO  08:48+5708:50+592m--2289.42120mWRNH 8, Gujarat
45BLValsad (3)X  09:15+3809:20+395m--2298.38015mWRValsad, Gujarat
46ATULAtul (3)  09:25+1:0809:27+1:072m--2305.06022mWRValsad, Gujarat
47PADPardi (3)  09:31+1:0809:33+1:082m--2308.94519mWRValsad, Gujarat
48UVDUdvada (3)XO  09:41+1:0709:43+1:092m--2314.92918mWRUdvada, Gujarat
49BAGDBagwada (2)  09:49-09:51-2m--2317.82722mWRNH8, Gujarat
50VAPIVapi (3)X  10:06+3510:08+362m--2324.54827mWRVapi, Gujarat
51KEBKarambeli (2)XO  10:16-10:18-2m--2331.04829mWRNational Highway 8, Gujarat
52BLDBhilad (3)X  10:24+1:0410:26+1:042m--2335.86933mWRBhilad, Gujarat
53SJNSanjan (3)X  10:36+1:1210:38+1:122m--2347.45422mWRSanjan, Gujarat
54UBRUmbargam Road (3)  10:44+1:0510:46+1:052m32352.73230mWRUmbergaon, Gujarat
55GVDGholvad (4)  11:03+1:0311:05+1:032m--2361.93914mWRGholvad, Maharashtra
56DRD•Dahanu Road (5)•  11:22+5811:25+1:013m--2373.05712mWRDahanu, Maharashtra
57VGNVangaon (3)X  11:38+3211:40+342m--2385.36311mWRDist. Palghar, Maharashtra
58BORBoisar (3)X  11:49+3211:51+322m32394.73817mWRBoisar Tel.no-02525-266626, Maharashtra
59PLGPalghar (3)O  12:09+812:11+82m--2406.05619mWRPalghar, Maharashtra
60KLVKelve Road (3)X  12:20+3312:22+362m--2414.46410mWRDist. Palghar, Maharashtra
61SAHSaphale (2)  12:28+3312:30+322m22420.9588mWRDist. Palghar, Maharashtra
62VTNVaitarna (2)XO  12:38+3612:40+352m22428.6133mWRDist. Palghar, Maharashtra
63VRVirar (8)X  13:20+1513:28+168m42437.2636mWRDist. Palghar, Maharashtra
64BSRVasai Road (7)XO  13:36+713:38+72m52445.6397mWRVasai 401202, Maharashtra
65BVIMumbai Borivali (8)X  14:05+1214:13+128m62463.03819mWRMumbai - 400092, Maharashtra
66BCTMumbai Central (9)  15:00+10---2492.6-3mWRMumbai 400008, Maharashtra
Scroll to Top
Scroll to Bottom